createdAt,value
2023-02-14T00:01:12.086Z,8.94
2023-02-14T00:03:42.336Z,8.93
2023-02-14T00:06:13.842Z,8.96
2023-02-14T00:08:46.081Z,8.95
2023-02-14T00:11:18.948Z,8.90
2023-02-14T00:14:05.849Z,8.75
2023-02-14T00:16:33.074Z,8.62
2023-02-14T00:19:06.040Z,8.63
2023-02-14T00:21:37.741Z,8.50
2023-02-14T00:24:13.618Z,8.42
2023-02-14T00:26:40.762Z,8.31
2023-02-14T00:29:10.974Z,8.32
2023-02-14T00:31:38.838Z,8.33
2023-02-14T00:34:06.506Z,8.41
2023-02-14T00:36:33.672Z,8.28
2023-02-14T00:39:05.752Z,8.33
2023-02-14T00:41:32.392Z,8.26
2023-02-14T00:44:02.184Z,8.15
2023-02-14T00:46:29.156Z,8.16
2023-02-14T00:48:56.437Z,8.12
2023-02-14T00:51:24.306Z,7.98
2023-02-14T00:53:51.839Z,8.23
2023-02-14T00:56:20.046Z,8.27
2023-02-14T00:58:47.574Z,8.24
2023-02-14T01:01:18.816Z,8.09
2023-02-14T01:03:45.669Z,8.13
2023-02-14T01:06:12.516Z,8.06
2023-02-14T01:08:39.365Z,7.94
2023-02-14T01:11:15.525Z,8.03
2023-02-14T01:13:43.428Z,8.02
2023-02-14T01:16:16.573Z,8.11
2023-02-14T01:18:44.455Z,8.06
2023-02-14T01:21:11.145Z,8.01
2023-02-14T01:23:37.951Z,7.79
2023-02-14T01:26:06.641Z,7.82
2023-02-14T01:28:33.900Z,7.99
2023-02-14T01:31:16.925Z,8.08
2023-02-14T01:33:45.234Z,8.05
2023-02-14T01:36:25.459Z,8.01
2023-02-14T01:38:54.546Z,7.95
2023-02-14T01:41:24.117Z,8.01
2023-02-14T01:44:01.595Z,7.93
2023-02-14T01:46:34.139Z,8.02
2023-02-14T01:49:09.808Z,7.99
2023-02-14T01:51:41.214Z,8.05
2023-02-14T01:54:09.712Z,8.07
2023-02-14T01:56:49.629Z,8.11
2023-02-14T01:59:21.072Z,8.10
2023-02-14T02:01:49.886Z,8.12
2023-02-14T02:04:22.811Z,8.14
2023-02-14T02:06:57.233Z,8.16
2023-02-14T02:09:39.301Z,8.13
2023-02-14T02:12:06.140Z,8.11
2023-02-14T02:14:34.005Z,7.93
2023-02-14T02:17:12.889Z,7.76
2023-02-14T02:20:13.565Z,7.66
2023-02-14T02:23:19.041Z,7.40
2023-02-14T02:26:04.164Z,7.41
2023-02-14T02:29:00.282Z,7.32
2023-02-14T02:31:55.784Z,7.29
2023-02-14T02:34:59.692Z,7.15
2023-02-14T02:37:50.688Z,6.99
2023-02-14T02:40:36.269Z,6.99
2023-02-14T02:43:24.419Z,6.95
2023-02-14T02:46:25.237Z,7.03
2023-02-14T02:49:01.009Z,7.02
2023-02-14T02:51:54.119Z,7.08
2023-02-14T02:54:52.437Z,6.88
2023-02-14T02:57:26.995Z,6.78
2023-02-14T02:59:56.423Z,6.74
2023-02-14T03:02:30.589Z,6.64
2023-02-14T03:05:05.523Z,6.61
2023-02-14T03:07:39.143Z,6.73
2023-02-14T03:10:23.692Z,6.82
2023-02-14T03:13:32.586Z,6.86
2023-02-14T03:16:47.246Z,6.75
2023-02-14T03:20:08.335Z,6.82
2023-02-14T03:22:54.584Z,6.91
2023-02-14T03:25:40.851Z,6.74
2023-02-14T03:28:28.774Z,6.54
2023-02-14T03:31:02.497Z,6.29
2023-02-14T03:33:39.488Z,6.34
2023-02-14T03:36:13.389Z,6.21
2023-02-14T03:39:03.727Z,6.25
2023-02-14T03:41:38.700Z,6.26
2023-02-14T03:44:11.348Z,6.36
2023-02-14T03:46:45.664Z,6.52
2023-02-14T03:49:17.913Z,6.58
2023-02-14T03:51:48.301Z,6.74
2023-02-14T03:54:16.513Z,6.88
2023-02-14T03:56:50.207Z,6.82
2023-02-14T03:59:29.320Z,6.94
2023-02-14T04:02:22.112Z,6.86
2023-02-14T04:04:50.795Z,6.87
2023-02-14T04:07:20.423Z,6.84
2023-02-14T04:09:47.768Z,6.95
2023-02-14T04:12:16.918Z,7.05
2023-02-14T04:14:44.909Z,7.01
2023-02-14T04:17:30.476Z,6.97
2023-02-14T04:19:57.205Z,6.90
2023-02-14T04:22:24.039Z,6.96
2023-02-14T04:24:50.889Z,7.05
2023-02-14T04:27:17.650Z,7.08
2023-02-14T04:29:47.301Z,7.14
2023-02-14T04:32:17.355Z,7.05
2023-02-14T04:34:44.843Z,6.96
2023-02-14T04:37:12.239Z,6.90
2023-02-14T04:39:39.555Z,6.95
2023-02-14T04:42:06.838Z,7.02
2023-02-14T04:44:38.346Z,7.05
2023-02-14T04:47:06.326Z,7.04
2023-02-14T04:49:33.636Z,7.08
2023-02-14T04:52:00.788Z,7.02
2023-02-14T04:54:27.917Z,7.10
2023-02-14T04:56:54.777Z,7.01
2023-02-14T04:59:24.642Z,7.07
2023-02-14T05:01:52.694Z,7.07
2023-02-14T05:04:20.186Z,7.05
2023-02-14T05:06:46.950Z,7.05
2023-02-14T05:09:13.774Z,7.05
2023-02-14T05:11:40.501Z,7.01
2023-02-14T05:14:07.456Z,6.99
2023-02-14T05:16:34.397Z,7.02
2023-02-14T05:19:01.200Z,7.09
2023-02-14T05:21:28.663Z,7.09
2023-02-14T05:23:55.491Z,6.98
2023-02-14T05:26:22.478Z,6.98
2023-02-14T05:28:49.197Z,7.04
2023-02-14T05:31:16.225Z,7.02
2023-02-14T05:33:43.014Z,7.06
2023-02-14T05:36:10.344Z,7.03
2023-02-14T05:38:37.196Z,7.10
2023-02-14T05:41:04.079Z,7.11
2023-02-14T05:43:30.810Z,7.07
2023-02-14T05:45:58.438Z,7.11
2023-02-14T05:48:25.476Z,7.15
2023-02-14T05:50:52.268Z,7.11
2023-02-14T05:53:19.217Z,6.99
2023-02-14T05:55:46.627Z,7.03
2023-02-14T05:58:13.728Z,7.07
2023-02-14T06:00:41.510Z,7.06
2023-02-14T06:03:08.897Z,6.85
2023-02-14T06:05:36.166Z,6.76
2023-02-14T06:08:03.039Z,6.72
2023-02-14T06:10:29.824Z,6.58
2023-02-14T06:12:57.069Z,6.64
2023-02-14T06:15:23.918Z,6.53
2023-02-14T06:17:53.049Z,6.65
2023-02-14T06:20:20.482Z,6.68
2023-02-14T06:22:47.578Z,6.56
2023-02-14T06:25:14.460Z,6.61
2023-02-14T06:27:41.390Z,6.60
2023-02-14T06:30:09.758Z,6.64
2023-02-14T06:32:36.493Z,6.53
2023-02-14T06:35:04.217Z,6.45
2023-02-14T06:37:31.077Z,6.50
2023-02-14T06:39:58.075Z,6.69
2023-02-14T06:42:24.914Z,6.74
2023-02-14T06:44:51.757Z,6.75
2023-02-14T06:47:18.535Z,6.77
2023-02-14T06:49:45.346Z,6.91
2023-02-14T06:52:12.481Z,6.84
2023-02-14T06:54:40.174Z,7.05
2023-02-14T06:57:06.928Z,7.25
2023-02-14T06:59:33.693Z,7.27
2023-02-14T07:02:00.486Z,7.42
2023-02-14T07:04:27.227Z,7.36
2023-02-14T07:06:53.980Z,7.41
2023-02-14T07:09:20.855Z,7.22
2023-02-14T07:11:47.886Z,7.18
2023-02-14T07:14:14.968Z,7.11
2023-02-14T07:16:41.758Z,7.19
2023-02-14T07:19:08.509Z,7.18
2023-02-14T07:21:35.363Z,7.14
2023-02-14T07:24:02.128Z,7.07
2023-02-14T07:26:28.930Z,7.00
2023-02-14T07:28:55.789Z,6.89
2023-02-14T07:31:23.642Z,6.96
2023-02-14T07:33:51.720Z,6.79
2023-02-14T07:36:19.046Z,6.78
2023-02-14T07:38:45.813Z,6.82
2023-02-14T07:41:12.553Z,6.77
2023-02-14T07:43:39.864Z,7.03
2023-02-14T07:46:06.858Z,7.20
2023-02-14T07:48:34.559Z,7.08
2023-02-14T07:51:02.709Z,7.14
2023-02-14T07:53:29.754Z,7.13
2023-02-14T07:55:56.673Z,7.10
2023-02-14T07:58:23.453Z,6.93
2023-02-14T08:00:51.222Z,6.88
2023-02-14T08:03:18.423Z,6.79
2023-02-14T08:05:45.225Z,7.04
2023-02-14T08:08:12.113Z,7.09
2023-02-14T08:10:38.939Z,7.17
2023-02-14T08:13:05.687Z,7.06
2023-02-14T08:15:53.557Z,7.19
2023-02-14T08:18:23.171Z,7.15
2023-02-14T08:20:50.230Z,7.18
2023-02-14T08:23:18.418Z,7.20
2023-02-14T08:25:45.311Z,7.35
2023-02-14T08:28:13.837Z,7.43
2023-02-14T08:30:42.117Z,7.58
2023-02-14T08:33:09.299Z,7.60
2023-02-14T08:35:36.513Z,7.73
2023-02-14T08:38:04.435Z,7.55
2023-02-14T08:40:31.561Z,7.70
2023-02-14T08:42:58.271Z,7.82
2023-02-14T08:45:25.151Z,7.77
2023-02-14T08:47:51.877Z,7.81
2023-02-14T08:50:19.267Z,7.87
2023-02-14T08:52:46.074Z,7.85
2023-02-14T08:55:13.928Z,7.97
2023-02-14T08:57:40.919Z,7.97
2023-02-14T09:00:08.764Z,8.08
2023-02-14T09:02:36.207Z,8.23
2023-02-14T09:05:03.048Z,8.07
2023-02-14T09:07:30.762Z,8.10
2023-02-14T09:09:57.612Z,8.17
2023-02-14T09:12:24.554Z,8.14
2023-02-14T09:14:51.312Z,8.49
2023-02-14T09:17:18.352Z,8.64
2023-02-14T09:19:45.143Z,8.78
2023-02-14T09:22:12.076Z,8.95
2023-02-14T09:24:41.412Z,9.03
2023-02-14T09:27:08.703Z,9.16
2023-02-14T09:29:36.467Z,9.36
2023-02-14T09:32:03.734Z,9.55
2023-02-14T09:34:32.993Z,9.62
2023-02-14T09:36:59.670Z,9.67
2023-02-14T09:39:26.421Z,9.75
2023-02-14T09:42:15.368Z,9.84
2023-02-14T09:45:11.756Z,9.95
2023-02-14T09:47:44.587Z,10.04
2023-02-14T09:50:20.561Z,10.14
2023-02-14T09:52:51.306Z,10.01
2023-02-14T09:55:18.854Z,10.16
2023-02-14T09:58:01.673Z,10.11
2023-02-14T10:00:46.327Z,10.29
2023-02-14T10:03:35.664Z,10.42
2023-02-14T10:06:20.971Z,10.34
2023-02-14T10:09:07.809Z,10.53
2023-02-14T10:11:35.607Z,10.57
2023-02-14T10:14:12.087Z,10.53
2023-02-14T10:17:19.426Z,10.65
2023-02-14T10:20:01.361Z,10.90
2023-02-14T10:22:43.569Z,10.98
2023-02-14T10:25:23.939Z,11.12
2023-02-14T10:27:53.332Z,11.11
2023-02-14T10:30:22.893Z,11.38
2023-02-14T10:33:16.829Z,11.47
2023-02-14T10:35:52.581Z,11.62
2023-02-14T10:38:44.958Z,11.76
2023-02-14T10:41:24.697Z,11.84
2023-02-14T10:44:04.456Z,11.97
2023-02-14T10:46:55.536Z,12.17
2023-02-14T10:50:00.465Z,12.32
2023-02-14T10:52:34.399Z,12.39
2023-02-14T10:55:13.921Z,12.58
2023-02-14T10:57:51.107Z,12.74
2023-02-14T11:00:26.514Z,12.81
2023-02-14T11:02:58.098Z,12.98
2023-02-14T11:05:27.107Z,13.14
2023-02-14T11:07:53.867Z,13.31
2023-02-14T11:10:25.318Z,13.43
2023-02-14T11:12:52.186Z,13.56
2023-02-14T11:15:21.776Z,13.66
2023-02-14T11:17:49.270Z,13.78
2023-02-14T11:20:20.010Z,13.75
2023-02-14T11:22:46.925Z,13.75
2023-02-14T11:25:21.468Z,13.90
2023-02-14T11:27:51.101Z,13.91
2023-02-14T11:30:28.178Z,14.07
2023-02-14T11:32:56.365Z,14.20
2023-02-14T11:35:28.604Z,14.11
2023-02-14T11:38:02.137Z,14.27
2023-02-14T11:40:38.131Z,14.35
2023-02-14T11:43:14.434Z,14.32
2023-02-14T11:45:50.096Z,14.36
2023-02-14T11:48:37.068Z,14.36
2023-02-14T11:51:14.720Z,14.50
2023-02-14T11:53:56.920Z,14.51
2023-02-14T11:56:24.187Z,14.58
2023-02-14T11:58:56.682Z,14.59
2023-02-14T12:01:29.840Z,14.57
2023-02-14T12:04:01.664Z,14.53
2023-02-14T12:06:36.488Z,14.62
2023-02-14T12:09:29.448Z,14.68
2023-02-14T12:11:59.232Z,14.66
2023-02-14T12:14:32.473Z,14.70
2023-02-14T12:17:11.330Z,14.73
2023-02-14T12:19:56.121Z,14.67
2023-02-14T12:22:29.562Z,14.57
2023-02-14T12:25:10.829Z,14.55
2023-02-14T12:27:37.833Z,14.47
2023-02-14T12:30:35.182Z,14.48
2023-02-14T12:33:02.293Z,14.46
2023-02-14T12:35:52.293Z,14.44
2023-02-14T12:38:33.574Z,14.40
2023-02-14T12:41:06.211Z,14.48
2023-02-14T12:43:51.471Z,14.47
2023-02-14T12:46:22.985Z,14.50
2023-02-14T12:49:22.453Z,14.55
2023-02-14T12:52:15.207Z,14.50
2023-02-14T12:54:53.939Z,14.46
2023-02-14T12:57:36.987Z,14.44
2023-02-14T13:00:15.135Z,14.33
2023-02-14T13:03:30.429Z,14.43
2023-02-14T13:06:23.772Z,14.40
2023-02-14T13:09:16.181Z,14.37
2023-02-14T13:11:57.923Z,14.43
2023-02-14T13:14:31.073Z,14.43
2023-02-14T13:17:07.948Z,14.49
2023-02-14T13:19:43.635Z,14.55
2023-02-14T13:22:27.393Z,14.52
2023-02-14T13:24:59.023Z,14.46
2023-02-14T13:27:33.403Z,14.57
2023-02-14T13:30:04.990Z,14.63
2023-02-14T13:32:39.251Z,14.69
2023-02-14T13:35:08.007Z,14.66
2023-02-14T13:37:36.107Z,14.69
2023-02-14T13:40:16.447Z,14.68
2023-02-14T13:42:49.923Z,14.68
2023-02-14T13:45:32.701Z,14.71
2023-02-14T13:48:04.868Z,14.71
2023-02-14T13:50:36.008Z,14.76
2023-02-14T13:53:02.858Z,14.77
2023-02-14T13:55:36.144Z,14.81
2023-02-14T13:58:19.421Z,14.82
2023-02-14T14:00:48.147Z,14.77
2023-02-14T14:03:37.783Z,14.83
2023-02-14T14:06:10.793Z,14.74
2023-02-14T14:08:46.227Z,14.77
2023-02-14T14:11:12.942Z,14.77
2023-02-14T14:13:42.447Z,14.73
2023-02-14T14:16:38.976Z,14.74
2023-02-14T14:19:17.578Z,14.70
2023-02-14T14:22:00.879Z,14.73
2023-02-14T14:24:32.841Z,14.61
2023-02-14T14:27:14.590Z,14.66
2023-02-14T14:29:45.760Z,14.63
2023-02-14T14:32:36.243Z,14.64
2023-02-14T14:35:15.980Z,14.67
2023-02-14T14:38:01.472Z,14.63
2023-02-14T14:40:34.229Z,14.62
2023-02-14T14:43:07.182Z,14.64
2023-02-14T14:45:34.551Z,14.58
2023-02-14T14:48:10.290Z,14.51
2023-02-14T14:50:37.218Z,14.56
2023-02-14T14:53:09.463Z,14.53
2023-02-14T14:55:38.290Z,14.52
2023-02-14T14:58:11.022Z,14.42
2023-02-14T15:00:42.592Z,14.42
2023-02-14T15:03:12.448Z,14.44
2023-02-14T15:05:42.302Z,14.44
2023-02-14T15:08:36.663Z,14.41
2023-02-14T15:11:13.296Z,14.39
2023-02-14T15:13:53.729Z,14.33
2023-02-14T15:16:25.080Z,14.33
2023-02-14T15:18:57.363Z,14.39
2023-02-14T15:21:24.696Z,14.41
2023-02-14T15:23:53.988Z,14.39
2023-02-14T15:26:42.748Z,14.36
2023-02-14T15:29:33.584Z,14.41
2023-02-14T15:32:03.316Z,14.45
2023-02-14T15:34:36.091Z,14.46
2023-02-14T15:37:06.690Z,14.51
2023-02-14T15:39:58.032Z,14.59
2023-02-14T15:42:26.832Z,14.54
2023-02-14T15:45:22.644Z,14.54
2023-02-14T15:47:52.347Z,14.58
2023-02-14T15:50:26.159Z,14.57
2023-02-14T15:52:56.330Z,14.54
2023-02-14T15:55:26.509Z,14.50
2023-02-14T15:58:00.754Z,14.55
2023-02-14T16:00:27.784Z,14.57
2023-02-14T16:02:58.132Z,14.46
2023-02-14T16:05:27.372Z,14.58
2023-02-14T16:07:59.906Z,14.66
2023-02-14T16:10:30.411Z,14.61
2023-02-14T16:13:06.610Z,14.57
2023-02-14T16:15:38.554Z,14.56
2023-02-14T16:18:19.135Z,14.53
2023-02-14T16:20:48.859Z,14.47
2023-02-14T16:23:23.437Z,14.47
2023-02-14T16:25:50.987Z,14.47
2023-02-14T16:28:18.107Z,14.43
2023-02-14T16:30:47.388Z,14.38
2023-02-14T16:33:27.356Z,14.34
2023-02-14T16:35:56.283Z,14.28
2023-02-14T16:38:23.224Z,14.30
2023-02-14T16:40:52.668Z,14.26
2023-02-14T16:43:20.952Z,14.23
2023-02-14T16:45:48.341Z,14.21
2023-02-14T16:48:18.560Z,14.16
2023-02-14T16:50:46.360Z,14.11
2023-02-14T16:53:28.905Z,14.05
2023-02-14T16:55:57.535Z,14.01
2023-02-14T16:58:32.029Z,13.92
2023-02-14T17:00:59.236Z,13.87
2023-02-14T17:03:26.253Z,13.84
2023-02-14T17:05:54.568Z,13.79
2023-02-14T17:08:21.816Z,13.77
2023-02-14T17:10:49.082Z,13.75
2023-02-14T17:13:19.278Z,13.72
2023-02-14T17:15:46.395Z,13.66
2023-02-14T17:18:17.934Z,13.63
2023-02-14T17:20:44.829Z,13.60
2023-02-14T17:23:11.552Z,13.56
2023-02-14T17:25:38.799Z,13.54
2023-02-14T17:28:05.609Z,13.51
2023-02-14T17:30:32.574Z,13.49
2023-02-14T17:32:59.886Z,13.47
2023-02-14T17:35:26.745Z,13.40
2023-02-14T17:37:53.442Z,13.39
2023-02-14T17:40:20.482Z,13.36
2023-02-14T17:42:47.149Z,13.35
2023-02-14T17:45:13.963Z,13.32
2023-02-14T17:47:43.187Z,13.32
2023-02-14T17:50:10.672Z,13.32
2023-02-14T17:52:37.929Z,13.31
2023-02-14T17:55:05.870Z,13.31
2023-02-14T17:57:32.920Z,13.29
2023-02-14T17:59:59.758Z,13.28
2023-02-14T18:02:26.872Z,13.25
2023-02-14T18:04:53.744Z,13.20
2023-02-14T18:07:20.966Z,13.21
2023-02-14T18:09:47.716Z,13.20
2023-02-14T18:12:15.157Z,13.20
2023-02-14T18:14:42.223Z,13.16
2023-02-14T18:17:09.050Z,13.17
2023-02-14T18:19:35.830Z,13.13
2023-02-14T18:22:02.755Z,13.10
2023-02-14T18:24:29.626Z,13.07
2023-02-14T18:26:56.566Z,13.07
2023-02-14T18:29:23.456Z,13.00
2023-02-14T18:31:50.251Z,12.99
2023-02-14T18:34:17.039Z,13.00
2023-02-14T18:36:43.808Z,12.98
2023-02-14T18:39:10.824Z,12.97
2023-02-14T18:41:37.769Z,12.95
2023-02-14T18:44:05.054Z,12.95
2023-02-14T18:46:35.515Z,12.95
2023-02-14T18:49:04.451Z,12.90
2023-02-14T18:51:34.018Z,12.89
2023-02-14T18:54:02.248Z,12.86
2023-02-14T18:56:31.708Z,12.86
2023-02-14T18:59:05.064Z,12.83
2023-02-14T19:01:36.834Z,12.82
2023-02-14T19:04:06.421Z,12.78
2023-02-14T19:06:34.248Z,12.79
2023-02-14T19:09:02.478Z,12.78
2023-02-14T19:11:31.781Z,12.80
2023-02-14T19:14:00.370Z,12.76
2023-02-14T19:16:33.317Z,12.75
2023-02-14T19:19:02.682Z,12.74
2023-02-14T19:21:33.709Z,12.74
2023-02-14T19:24:02.466Z,12.72
2023-02-14T19:26:37.120Z,12.72
2023-02-14T19:29:10.738Z,12.70
2023-02-14T19:31:41.208Z,12.68
2023-02-14T19:34:13.724Z,12.64
2023-02-14T19:36:40.563Z,12.62
2023-02-14T19:39:07.695Z,12.61
2023-02-14T19:41:35.712Z,12.59
2023-02-14T19:44:04.836Z,12.57
2023-02-14T19:46:32.742Z,12.55
2023-02-14T19:49:00.620Z,12.47
2023-02-14T19:51:33.167Z,12.45
2023-02-14T19:54:01.656Z,12.37
2023-02-14T19:56:31.324Z,12.22
2023-02-14T19:58:59.131Z,12.24
2023-02-14T20:01:30.938Z,12.22
2023-02-14T20:03:57.829Z,12.19
2023-02-14T20:06:26.018Z,12.16
2023-02-14T20:08:53.179Z,12.14
2023-02-14T20:11:33.745Z,12.12
2023-02-14T20:14:01.117Z,12.13
2023-02-14T20:16:29.424Z,12.08
2023-02-14T20:18:57.006Z,12.07
2023-02-14T20:21:28.151Z,12.01
2023-02-14T20:23:58.542Z,11.97
2023-02-14T20:26:25.302Z,11.94
2023-02-14T20:28:53.208Z,11.91
2023-02-14T20:31:20.404Z,11.90
2023-02-14T20:33:51.568Z,11.88
2023-02-14T20:36:19.450Z,11.84
2023-02-14T20:38:46.669Z,11.82
2023-02-14T20:41:16.594Z,11.63
2023-02-14T20:43:43.506Z,11.60
2023-02-14T20:46:10.300Z,11.62
2023-02-14T20:48:37.189Z,11.53
2023-02-14T20:51:15.691Z,11.49
2023-02-14T20:53:43.830Z,11.53
2023-02-14T20:56:10.869Z,11.52
2023-02-14T20:58:39.003Z,11.35
2023-02-14T21:01:09.818Z,11.29
2023-02-14T21:03:37.459Z,11.18
2023-02-14T21:06:06.765Z,11.03
2023-02-14T21:08:34.408Z,10.97
2023-02-14T21:11:01.825Z,11.10
2023-02-14T21:13:28.743Z,11.15
2023-02-14T21:15:55.569Z,11.20
2023-02-14T21:18:22.462Z,11.16
2023-02-14T21:20:50.889Z,10.97
2023-02-14T21:23:17.606Z,11.02
2023-02-14T21:25:44.343Z,10.88
2023-02-14T21:28:11.291Z,10.96
2023-02-14T21:30:37.998Z,10.85
2023-02-14T21:33:04.666Z,10.95
2023-02-14T21:35:31.459Z,10.87
2023-02-14T21:37:59.831Z,11.01
2023-02-14T21:40:26.597Z,10.87
2023-02-14T21:42:53.338Z,10.77
2023-02-14T21:45:38.765Z,10.86
2023-02-14T21:48:23.988Z,10.85
2023-02-14T21:50:50.746Z,10.70
2023-02-14T21:53:17.623Z,10.51
2023-02-14T21:55:46.084Z,10.52
2023-02-14T21:58:13.236Z,10.55
2023-02-14T22:00:40.062Z,10.55
2023-02-14T22:03:06.855Z,10.37
2023-02-14T22:05:33.644Z,10.26
2023-02-14T22:08:00.386Z,10.33
2023-02-14T22:10:27.259Z,10.23
2023-02-14T22:12:55.497Z,10.29
2023-02-14T22:15:22.257Z,10.30
2023-02-14T22:17:49.060Z,10.25
2023-02-14T22:20:16.663Z,10.20
2023-02-14T22:22:43.445Z,10.17
2023-02-14T22:25:10.226Z,10.13
2023-02-14T22:27:40.477Z,10.19
2023-02-14T22:30:07.986Z,10.15
2023-02-14T22:32:34.763Z,10.12
2023-02-14T22:35:01.536Z,10.06
2023-02-14T22:37:28.297Z,10.16
2023-02-14T22:39:55.041Z,10.26
2023-02-14T22:42:21.976Z,10.26
2023-02-14T22:44:48.802Z,10.23
2023-02-14T22:47:15.590Z,10.23
2023-02-14T22:49:42.362Z,10.13
2023-02-14T22:52:09.145Z,10.21
2023-02-14T22:54:36.011Z,10.13
2023-02-14T22:57:02.825Z,10.05
2023-02-14T22:59:32.144Z,10.19
2023-02-14T23:01:59.754Z,10.19
2023-02-14T23:04:29.407Z,10.28
2023-02-14T23:06:56.235Z,10.09
2023-02-14T23:09:24.278Z,10.11
2023-02-14T23:11:52.033Z,10.15
2023-02-14T23:14:37.983Z,10.24
2023-02-14T23:17:14.517Z,10.32
2023-02-14T23:20:01.049Z,10.33
2023-02-14T23:22:39.528Z,10.23
2023-02-14T23:25:09.278Z,10.29
2023-02-14T23:27:42.963Z,10.18
2023-02-14T23:30:13.029Z,10.21
2023-02-14T23:32:39.902Z,10.14
2023-02-14T23:35:06.987Z,10.15
2023-02-14T23:37:33.930Z,10.17
2023-02-14T23:40:00.680Z,10.09
2023-02-14T23:42:28.241Z,10.09
2023-02-14T23:45:14.981Z,10.19
2023-02-14T23:47:41.714Z,10.07
2023-02-14T23:50:08.933Z,10.08
2023-02-14T23:52:38.298Z,10.05
2023-02-14T23:55:05.698Z,10.04
2023-02-14T23:57:32.452Z,10.10
